sensor_id;sensor_type;location;lat;lon;timestamp;pressure;altitude;pressure_sealevel;temperature;humidity
47280;BME280;34064;44.942;0.008;2022-10-13T00:00:46;99390.38;;;15.80;61.40
47280;BME280;34064;44.942;0.008;2022-10-13T00:03:13;99390.38;;;15.80;61.22
47280;BME280;34064;44.942;0.008;2022-10-13T00:05:45;99398.66;;;15.77;61.15
47280;BME280;34064;44.942;0.008;2022-10-13T00:08:13;99391.63;;;15.76;61.22
47280;BME280;34064;44.942;0.008;2022-10-13T00:10:40;99389.19;;;15.73;61.58
47280;BME280;34064;44.942;0.008;2022-10-13T00:13:07;99393.16;;;15.69;61.69
47280;BME280;34064;44.942;0.008;2022-10-13T00:15:38;99391.44;;;15.68;61.46
47280;BME280;34064;44.942;0.008;2022-10-13T00:18:04;99384.25;;;15.68;61.65
47280;BME280;34064;44.942;0.008;2022-10-13T00:20:31;99387.78;;;15.69;61.58
47280;BME280;34064;44.942;0.008;2022-10-13T00:22:57;99376.22;;;15.68;61.45
47280;BME280;34064;44.942;0.008;2022-10-13T00:25:23;99366.38;;;15.69;61.53
47280;BME280;34064;44.942;0.008;2022-10-13T00:27:50;99368.06;;;15.70;61.47
47280;BME280;34064;44.942;0.008;2022-10-13T00:30:16;99369.75;;;15.71;61.53
47280;BME280;34064;44.942;0.008;2022-10-13T00:32:42;99364.25;;;15.72;61.61
47280;BME280;34064;44.942;0.008;2022-10-13T00:35:09;99356.38;;;15.71;61.68
47280;BME280;34064;44.942;0.008;2022-10-13T00:37:37;99351.28;;;15.68;61.80
47280;BME280;34064;44.942;0.008;2022-10-13T00:40:03;99357.88;;;15.64;61.69
47280;BME280;34064;44.942;0.008;2022-10-13T00:42:30;99362.09;;;15.56;61.95
47280;BME280;34064;44.942;0.008;2022-10-13T00:45:25;99373.34;;;15.50;61.90
47280;BME280;34064;44.942;0.008;2022-10-13T00:47:56;99359.97;;;15.50;61.72
47280;BME280;34064;44.942;0.008;2022-10-13T00:50:31;99350.97;;;15.51;61.87
47280;BME280;34064;44.942;0.008;2022-10-13T00:52:59;99348.00;;;15.54;61.90
47280;BME280;34064;44.942;0.008;2022-10-13T00:55:30;99346.03;;;15.56;61.83
47280;BME280;34064;44.942;0.008;2022-10-13T00:57:59;99353.06;;;15.57;61.87
47280;BME280;34064;44.942;0.008;2022-10-13T01:00:28;99344.91;;;15.59;61.91
47280;BME280;34064;44.942;0.008;2022-10-13T01:02:55;99342.22;;;15.59;61.77
47280;BME280;34064;44.942;0.008;2022-10-13T01:05:22;99344.63;;;15.52;62.02
47280;BME280;34064;44.942;0.008;2022-10-13T01:07:49;99355.59;;;15.49;62.20
47280;BME280;34064;44.942;0.008;2022-10-13T01:10:28;99361.78;;;15.50;61.83
47280;BME280;34064;44.942;0.008;2022-10-13T01:13:07;99373.63;;;15.47;62.01
47280;BME280;34064;44.942;0.008;2022-10-13T01:15:54;99379.94;;;15.46;61.92
47280;BME280;34064;44.942;0.008;2022-10-13T01:18:43;99384.63;;;15.44;61.98
47280;BME280;34064;44.942;0.008;2022-10-13T01:21:22;99372.31;;;15.41;62.36
47280;BME280;34064;44.942;0.008;2022-10-13T01:32:10;99387.41;;;15.42;62.37
47280;BME280;34064;44.942;0.008;2022-10-13T01:34:59;99382.91;;;15.43;62.55
47280;BME280;34064;44.942;0.008;2022-10-13T01:40:19;99378.53;;;15.42;62.71
47280;BME280;34064;44.942;0.008;2022-10-13T01:43:00;99365.72;;;15.46;62.64
47280;BME280;34064;44.942;0.008;2022-10-13T01:45:41;99360.94;;;15.49;62.75
47280;BME280;34064;44.942;0.008;2022-10-13T01:48:10;99363.06;;;15.55;62.49
47280;BME280;34064;44.942;0.008;2022-10-13T01:50:37;99352.94;;;15.59;62.85
47280;BME280;34064;44.942;0.008;2022-10-13T01:53:05;99350.00;;;15.62;62.71
47280;BME280;34064;44.942;0.008;2022-10-13T01:55:32;99349.84;;;15.64;62.88
47280;BME280;34064;44.942;0.008;2022-10-13T01:57:59;99345.34;;;15.64;63.29
47280;BME280;34064;44.942;0.008;2022-10-13T02:00:25;99353.53;;;15.63;63.15
47280;BME280;34064;44.942;0.008;2022-10-13T02:05:52;99343.81;;;15.62;63.02
47280;BME280;34064;44.942;0.008;2022-10-13T02:08:42;99335.88;;;15.60;63.04
47280;BME280;34064;44.942;0.008;2022-10-13T02:11:18;99337.88;;;15.58;63.20
47280;BME280;34064;44.942;0.008;2022-10-13T02:16:26;99330.69;;;15.58;63.23
47280;BME280;34064;44.942;0.008;2022-10-13T02:18:55;99334.19;;;15.59;62.91
47280;BME280;34064;44.942;0.008;2022-10-13T02:21:22;99330.69;;;15.58;62.98
47280;BME280;34064;44.942;0.008;2022-10-13T02:23:49;99335.31;;;15.56;63.34
47280;BME280;34064;44.942;0.008;2022-10-13T02:26:15;99335.31;;;15.56;62.97
47280;BME280;34064;44.942;0.008;2022-10-13T02:28:42;99334.47;;;15.56;63.34
47280;BME280;34064;44.942;0.008;2022-10-13T02:31:09;99326.31;;;15.57;63.09
47280;BME280;34064;44.942;0.008;2022-10-13T02:33:35;99326.31;;;15.57;62.96
47280;BME280;34064;44.942;0.008;2022-10-13T02:36:01;99329.69;;;15.59;63.20
47280;BME280;34064;44.942;0.008;2022-10-13T02:38:28;99328.84;;;15.59;63.17
47280;BME280;34064;44.942;0.008;2022-10-13T02:40:54;99338.84;;;15.57;63.48
47280;BME280;34064;44.942;0.008;2022-10-13T02:43:20;99338.72;;;15.58;63.14
47280;BME280;34064;44.942;0.008;2022-10-13T02:45:47;99331.66;;;15.57;63.06
47280;BME280;34064;44.942;0.008;2022-10-13T02:48:13;99332.63;;;15.56;63.19
47280;BME280;34064;44.942;0.008;2022-10-13T02:50:40;99340.66;;;15.56;63.30
47280;BME280;34064;44.942;0.008;2022-10-13T02:53:06;99335.31;;;15.56;63.41
47280;BME280;34064;44.942;0.008;2022-10-13T02:55:32;99315.59;;;15.57;63.24
47280;BME280;34064;44.942;0.008;2022-10-13T02:57:59;99314.59;;;15.58;63.41
47280;BME280;34064;44.942;0.008;2022-10-13T03:00:25;99313.63;;;15.59;63.48
47280;BME280;34064;44.942;0.008;2022-10-13T03:02:51;99315.44;;;15.59;63.45
47280;BME280;34064;44.942;0.008;2022-10-13T03:05:19;99310.78;;;15.51;63.79
47280;BME280;34064;44.942;0.008;2022-10-13T03:07:45;99308.13;;;15.51;63.78
47280;BME280;34064;44.942;0.008;2022-10-13T03:10:11;99308.13;;;15.51;63.56
47280;BME280;34064;44.942;0.008;2022-10-13T03:12:38;99306.41;;;15.50;63.45
47280;BME280;34064;44.942;0.008;2022-10-13T03:15:05;99318.38;;;15.46;63.39
47280;BME280;34064;44.942;0.008;2022-10-13T03:17:31;99310.50;;;15.44;63.39
47280;BME280;34064;44.942;0.008;2022-10-13T03:19:57;99308.78;;;15.43;63.54
47280;BME280;34064;44.942;0.008;2022-10-13T03:22:24;99299.22;;;15.41;63.46
47280;BME280;34064;44.942;0.008;2022-10-13T03:24:51;99312.59;;;15.41;63.49
47280;BME280;34064;44.942;0.008;2022-10-13T03:27:17;99307.97;;;15.43;63.19
47280;BME280;34064;44.942;0.008;2022-10-13T03:29:43;99307.97;;;15.43;63.38
47280;BME280;34064;44.942;0.008;2022-10-13T03:32:10;99294.44;;;15.44;63.40
47280;BME280;34064;44.942;0.008;2022-10-13T03:34:36;99286.25;;;15.46;63.55
47280;BME280;34064;44.942;0.008;2022-10-13T03:37:03;99279.78;;;15.49;63.55
47280;BME280;34064;44.942;0.008;2022-10-13T03:39:29;99276.97;;;15.50;63.49
47280;BME280;34064;44.942;0.008;2022-10-13T03:41:55;99292.16;;;15.50;63.87
47280;BME280;34064;44.942;0.008;2022-10-13T03:44:22;99287.81;;;15.49;63.89
47280;BME280;34064;44.942;0.008;2022-10-13T03:46:48;99280.63;;;15.49;63.86
47280;BME280;34064;44.942;0.008;2022-10-13T03:49:14;99278.66;;;15.51;63.71
47280;BME280;34064;44.942;0.008;2022-10-13T03:51:42;99270.50;;;15.53;63.65
47280;BME280;34064;44.942;0.008;2022-10-13T03:54:11;99267.25;;;15.49;64.02
47280;BME280;34064;44.942;0.008;2022-10-13T03:56:38;99268.06;;;15.50;63.93
47280;BME280;34064;44.942;0.008;2022-10-13T03:59:05;99271.63;;;15.50;64.07
47280;BME280;34064;44.942;0.008;2022-10-13T04:01:32;99270.91;;;15.48;64.13
47280;BME280;34064;44.942;0.008;2022-10-13T04:03:59;99272.75;;;15.48;64.28
47280;BME280;34064;44.942;0.008;2022-10-13T04:06:28;99262.88;;;15.48;63.89
47280;BME280;34064;44.942;0.008;2022-10-13T04:08:55;99260.34;;;15.47;63.75
47280;BME280;34064;44.942;0.008;2022-10-13T04:11:22;99255.25;;;15.43;63.77
47280;BME280;34064;44.942;0.008;2022-10-13T04:13:48;99261.72;;;15.41;63.83
47280;BME280;34064;44.942;0.008;2022-10-13T04:16:23;99253.25;;;15.36;64.03
47280;BME280;34064;44.942;0.008;2022-10-13T04:18:53;99261.44;;;15.34;63.92
47280;BME280;34064;44.942;0.008;2022-10-13T04:21:20;99258.75;;;15.34;64.08
47280;BME280;34064;44.942;0.008;2022-10-13T04:23:47;99258.91;;;15.33;63.99
47280;BME280;34064;44.942;0.008;2022-10-13T04:26:19;99264.25;;;15.33;63.88
47280;BME280;34064;44.942;0.008;2022-10-13T04:28:47;99260.03;;;15.30;64.04
47280;BME280;34064;44.942;0.008;2022-10-13T04:31:14;99266.22;;;15.31;63.82
47280;BME280;34064;44.942;0.008;2022-10-13T04:33:41;99263.81;;;15.27;63.94
47280;BME280;34064;44.942;0.008;2022-10-13T04:36:09;99272.13;;;15.24;64.11
47280;BME280;34064;44.942;0.008;2022-10-13T04:38:36;99283.66;;;15.25;64.15
47280;BME280;34064;44.942;0.008;2022-10-13T04:41:03;99299.88;;;15.23;64.24
47280;BME280;34064;44.942;0.008;2022-10-13T04:43:31;99304.25;;;15.24;64.35
47280;BME280;34064;44.942;0.008;2022-10-13T04:46:05;99314.81;;;15.26;64.12
47280;BME280;34064;44.942;0.008;2022-10-13T04:48:32;99313.09;;;15.25;64.08
47280;BME280;34064;44.942;0.008;2022-10-13T04:51:04;99325.34;;;15.27;64.15
47280;BME280;34064;44.942;0.008;2022-10-13T04:53:30;99326.34;;;15.26;64.06
47280;BME280;34064;44.942;0.008;2022-10-13T04:56:01;99313.56;;;15.30;63.89
47280;BME280;34064;44.942;0.008;2022-10-13T04:58:28;99302.00;;;15.29;64.17
47280;BME280;34064;44.942;0.008;2022-10-13T05:00:55;99312.44;;;15.33;64.14
47280;BME280;34064;44.942;0.008;2022-10-13T05:03:21;99313.84;;;15.37;64.08
47280;BME280;34064;44.942;0.008;2022-10-13T05:05:48;99304.81;;;15.38;64.07
47280;BME280;34064;44.942;0.008;2022-10-13T05:08:14;99312.75;;;15.39;64.34
47280;BME280;34064;44.942;0.008;2022-10-13T05:10:41;99307.09;;;15.42;64.26
47280;BME280;34064;44.942;0.008;2022-10-13T05:13:07;99295.41;;;15.43;64.29
47280;BME280;34064;44.942;0.008;2022-10-13T05:15:34;99284.56;;;15.45;64.42
47280;BME280;34064;44.942;0.008;2022-10-13T05:18:03;99287.94;;;15.47;64.13
47280;BME280;34064;44.942;0.008;2022-10-13T05:20:29;99309.66;;;15.44;64.70
47280;BME280;34064;44.942;0.008;2022-10-13T05:22:56;99313.31;;;15.43;64.60
47280;BME280;34064;44.942;0.008;2022-10-13T05:25:23;99314.16;;;15.43;64.75
47280;BME280;34064;44.942;0.008;2022-10-13T05:27:49;99310.34;;;15.46;64.44
47280;BME280;34064;44.942;0.008;2022-10-13T05:30:15;99302.31;;;15.46;64.60
47280;BME280;34064;44.942;0.008;2022-10-13T05:32:42;99304.00;;;15.47;64.44
47280;BME280;34064;44.942;0.008;2022-10-13T05:35:08;99305.84;;;15.47;64.25
47280;BME280;34064;44.942;0.008;2022-10-13T05:37:35;99305.41;;;15.41;64.72
47280;BME280;34064;44.942;0.008;2022-10-13T05:40:01;99309.66;;;15.44;64.55
47280;BME280;34064;44.942;0.008;2022-10-13T05:42:28;99306.38;;;15.40;64.49
47280;BME280;34064;44.942;0.008;2022-10-13T05:44:56;99302.88;;;15.40;64.66
47280;BME280;34064;44.942;0.008;2022-10-13T05:47:22;99310.91;;;15.40;64.74
47280;BME280;34064;44.942;0.008;2022-10-13T05:49:53;99314.41;;;15.40;64.61
47280;BME280;34064;44.942;0.008;2022-10-13T05:52:21;99315.28;;;15.41;64.40
47280;BME280;34064;44.942;0.008;2022-10-13T05:54:53;99315.41;;;15.39;64.70
47280;BME280;34064;44.942;0.008;2022-10-13T05:57:35;99320.63;;;15.41;64.59
47280;BME280;34064;44.942;0.008;2022-10-13T06:00:11;99332.06;;;15.43;64.39
47280;BME280;34064;44.942;0.008;2022-10-13T06:05:26;99331.59;;;15.38;64.74
47280;BME280;34064;44.942;0.008;2022-10-13T06:07:54;99311.03;;;15.38;64.56
47280;BME280;34064;44.942;0.008;2022-10-13T06:10:23;99306.53;;;15.39;64.73
47280;BME280;34064;44.942;0.008;2022-10-13T06:12:50;99304.81;;;15.38;64.58
47280;BME280;34064;44.942;0.008;2022-10-13T06:15:16;99306.78;;;15.36;64.63
47280;BME280;34064;44.942;0.008;2022-10-13T06:17:43;99319.47;;;15.34;64.43
47280;BME280;34064;44.942;0.008;2022-10-13T06:20:10;99335.22;;;15.27;64.94
47280;BME280;34064;44.942;0.008;2022-10-13T06:22:36;99332.69;;;15.25;65.15
47280;BME280;34064;44.942;0.008;2022-10-13T06:25:04;99314.81;;;15.26;64.94
47280;BME280;34064;44.942;0.008;2022-10-13T06:27:32;99315.38;;;15.29;65.16
47280;BME280;34064;44.942;0.008;2022-10-13T06:29:58;99318.91;;;15.30;65.22
47280;BME280;34064;44.942;0.008;2022-10-13T06:32:25;99307.06;;;15.33;65.13
47280;BME280;34064;44.942;0.008;2022-10-13T06:34:51;99305.94;;;15.35;65.71
47280;BME280;34064;44.942;0.008;2022-10-13T06:37:17;99295.81;;;15.39;65.22
47280;BME280;34064;44.942;0.008;2022-10-13T06:39:44;99296.38;;;15.42;65.38
47280;BME280;34064;44.942;0.008;2022-10-13T06:42:11;99288.09;;;15.46;65.05
47280;BME280;34064;44.942;0.008;2022-10-13T06:44:38;99278.94;;;15.48;65.10
47280;BME280;34064;44.942;0.008;2022-10-13T06:47:04;99285.00;;;15.50;65.40
47280;BME280;34064;44.942;0.008;2022-10-13T06:49:31;99271.63;;;15.50;65.34
47280;BME280;34064;44.942;0.008;2022-10-13T06:51:57;99276.72;;;15.53;65.44
47280;BME280;34064;44.942;0.008;2022-10-13T06:54:24;99264.16;;;15.54;65.42
47280;BME280;34064;44.942;0.008;2022-10-13T06:56:50;99261.63;;;15.52;65.51
47280;BME280;34064;44.942;0.008;2022-10-13T06:59:17;99274.72;;;15.55;65.94
47280;BME280;34064;44.942;0.008;2022-10-13T07:01:43;99268.38;;;15.56;66.40
47280;BME280;34064;44.942;0.008;2022-10-13T07:04:09;99257.56;;;15.58;65.94
47280;BME280;34064;44.942;0.008;2022-10-13T07:06:36;99253.59;;;15.62;65.76
47280;BME280;34064;44.942;0.008;2022-10-13T07:09:07;99276.72;;;15.63;65.76
47280;BME280;34064;44.942;0.008;2022-10-13T07:11:34;99300.81;;;15.63;65.71
47280;BME280;34064;44.942;0.008;2022-10-13T07:14:01;99301.63;;;15.64;66.15
47280;BME280;34064;44.942;0.008;2022-10-13T07:16:27;99310.53;;;15.64;65.88
47280;BME280;34064;44.942;0.008;2022-10-13T07:18:53;99296.72;;;15.69;65.96
47280;BME280;34064;44.942;0.008;2022-10-13T07:21:20;99283.75;;;15.74;65.82
47280;BME280;34064;44.942;0.008;2022-10-13T07:23:46;99292.25;;;15.79;65.59
47280;BME280;34064;44.942;0.008;2022-10-13T07:26:14;99303.66;;;15.81;65.81
47280;BME280;34064;44.942;0.008;2022-10-13T07:28:41;99304.13;;;15.86;65.73
47280;BME280;34064;44.942;0.008;2022-10-13T07:31:12;99292.16;;;15.90;65.58
47280;BME280;34064;44.942;0.008;2022-10-13T07:33:40;99298.78;;;15.96;65.44
47280;BME280;34064;44.942;0.008;2022-10-13T07:36:08;99295.69;;;16.01;65.41
47280;BME280;34064;44.942;0.008;2022-10-13T07:38:34;99288.06;;;16.06;65.23
47280;BME280;34064;44.942;0.008;2022-10-13T07:41:06;99283.81;;;16.13;65.32
47280;BME280;34064;44.942;0.008;2022-10-13T07:43:32;99280.72;;;16.18;65.13
47280;BME280;34064;44.942;0.008;2022-10-13T07:45:59;99278.59;;;16.21;65.29
47280;BME280;34064;44.942;0.008;2022-10-13T07:48:27;99284.50;;;16.25;65.70
47280;BME280;34064;44.942;0.008;2022-10-13T07:50:53;99284.06;;;16.30;65.36
47280;BME280;34064;44.942;0.008;2022-10-13T07:53:20;99289.16;;;16.33;65.58
47280;BME280;34064;44.942;0.008;2022-10-13T07:55:46;99290.59;;;16.37;65.32
47280;BME280;34064;44.942;0.008;2022-10-13T07:58:12;99293.94;;;16.39;65.60
47280;BME280;34064;44.942;0.008;2022-10-13T08:00:39;99293.38;;;16.45;65.62
47280;BME280;34064;44.942;0.008;2022-10-13T08:03:05;99292.81;;;16.51;65.67
47280;BME280;34064;44.942;0.008;2022-10-13T08:05:32;99282.34;;;16.58;65.58
47280;BME280;34064;44.942;0.008;2022-10-13T08:07:58;99279.25;;;16.63;65.37
47280;BME280;34064;44.942;0.008;2022-10-13T08:10:26;99267.91;;;16.69;65.51
47280;BME280;34064;44.942;0.008;2022-10-13T08:12:54;99255.75;;;16.75;65.39
47280;BME280;34064;44.942;0.008;2022-10-13T08:15:20;99247.00;;;16.82;65.74
47280;BME280;34064;44.942;0.008;2022-10-13T08:17:47;99239.88;;;16.91;65.44
47280;BME280;34064;44.942;0.008;2022-10-13T08:20:13;99243.72;;;16.98;65.57
47280;BME280;34064;44.942;0.008;2022-10-13T08:22:39;99242.94;;;17.06;65.82
47280;BME280;34064;44.942;0.008;2022-10-13T08:25:06;99241.22;;;17.15;66.10
47280;BME280;34064;44.942;0.008;2022-10-13T08:27:33;99244.88;;;17.24;65.88
47280;BME280;34064;44.942;0.008;2022-10-13T08:29:59;99242.28;;;17.32;65.83
47280;BME280;34064;44.942;0.008;2022-10-13T08:32:25;99245.03;;;17.40;65.64
47280;BME280;34064;44.942;0.008;2022-10-13T08:34:52;99246.13;;;17.48;65.77
47280;BME280;34064;44.942;0.008;2022-10-13T08:37:18;99255.25;;;17.55;66.10
47280;BME280;34064;44.942;0.008;2022-10-13T08:39:47;99252.81;;;17.61;65.79
47280;BME280;34064;44.942;0.008;2022-10-13T08:42:19;99246.53;;;17.71;65.60
47280;BME280;34064;44.942;0.008;2022-10-13T08:45:05;99242.22;;;17.78;66.02
47280;BME280;34064;44.942;0.008;2022-10-13T08:47:45;99227.56;;;17.90;65.87
47280;BME280;34064;44.942;0.008;2022-10-13T08:50:17;99224.28;;;17.97;66.07
47280;BME280;34064;44.942;0.008;2022-10-13T08:53:04;99224.50;;;18.03;65.80
47280;BME280;34064;44.942;0.008;2022-10-13T08:55:39;99223.88;;;18.09;66.41
47280;BME280;34064;44.942;0.008;2022-10-13T08:58:13;99214.88;;;18.19;66.20
47280;BME280;34064;44.942;0.008;2022-10-13T09:00:42;99205.03;;;18.28;65.99
47280;BME280;34064;44.942;0.008;2022-10-13T09:03:25;99194.16;;;18.37;66.34
47280;BME280;34064;44.942;0.008;2022-10-13T09:06:19;99194.13;;;18.55;65.94
47280;BME280;34064;44.942;0.008;2022-10-13T09:08:56;99200.56;;;18.71;65.70
47280;BME280;34064;44.942;0.008;2022-10-13T09:11:33;99198.13;;;18.86;65.72
47280;BME280;34064;44.942;0.008;2022-10-13T09:14:03;99195.56;;;19.02;65.68
47280;BME280;34064;44.942;0.008;2022-10-13T09:16:43;99194.09;;;19.16;65.88
47280;BME280;34064;44.942;0.008;2022-10-13T09:19:31;99185.16;;;19.24;65.55
47280;BME280;34064;44.942;0.008;2022-10-13T09:24:41;99179.66;;;19.34;65.65
47280;BME280;34064;44.942;0.008;2022-10-13T09:27:15;99168.03;;;19.42;65.37
47280;BME280;34064;44.942;0.008;2022-10-13T09:29:43;99166.00;;;19.44;65.29
47280;BME280;34064;44.942;0.008;2022-10-13T09:32:17;99156.94;;;19.53;65.35
47280;BME280;34064;44.942;0.008;2022-10-13T09:34:44;99158.63;;;19.54;65.25
47280;BME280;34064;44.942;0.008;2022-10-13T09:37:24;99142.63;;;19.61;65.34
47280;BME280;34064;44.942;0.008;2022-10-13T09:40:17;99151.22;;;19.64;65.39
47280;BME280;34064;44.942;0.008;2022-10-13T09:42:52;99158.81;;;19.69;65.53
47280;BME280;34064;44.942;0.008;2022-10-13T09:45:20;99159.66;;;19.78;65.58
47280;BME280;34064;44.942;0.008;2022-10-13T09:48:06;99149.03;;;19.85;65.33
47280;BME280;34064;44.942;0.008;2022-10-13T09:50:48;99140.47;;;19.89;65.19
47280;BME280;34064;44.942;0.008;2022-10-13T09:55:45;99146.19;;;20.03;65.23
47280;BME280;34064;44.942;0.008;2022-10-13T09:58:22;99136.75;;;20.15;65.03
47280;BME280;34064;44.942;0.008;2022-10-13T10:00:51;99135.03;;;20.22;64.96
47280;BME280;34064;44.942;0.008;2022-10-13T10:03:26;99136.03;;;20.30;64.21
47280;BME280;34064;44.942;0.008;2022-10-13T10:06:07;99133.31;;;20.30;64.45
47280;BME280;34064;44.942;0.008;2022-10-13T10:11:44;99122.47;;;20.54;64.28
47280;BME280;34064;44.942;0.008;2022-10-13T10:14:23;99114.31;;;20.71;63.53
47280;BME280;34064;44.942;0.008;2022-10-13T10:17:01;99112.59;;;20.78;63.33
47280;BME280;34064;44.942;0.008;2022-10-13T10:19:43;99103.16;;;20.82;63.44
47280;BME280;34064;44.942;0.008;2022-10-13T10:22:31;99100.41;;;20.91;63.17
47280;BME280;34064;44.942;0.008;2022-10-13T10:31:34;99074.03;;;21.01;62.96
47280;BME280;34064;44.942;0.008;2022-10-13T10:45:18;99078.44;;;21.17;62.44
47280;BME280;34064;44.942;0.008;2022-10-13T10:47:50;99080.72;;;21.28;62.42
47280;BME280;34064;44.942;0.008;2022-10-13T10:50:18;99067.28;;;21.43;62.53
47280;BME280;34064;44.942;0.008;2022-10-13T10:53:51;99050.63;;;21.55;61.98
47280;BME280;34064;44.942;0.008;2022-10-13T10:58:30;99037.28;;;21.61;61.11
47280;BME280;34064;44.942;0.008;2022-10-13T11:03:56;99053.28;;;21.63;60.99
47280;BME280;34064;44.942;0.008;2022-10-13T11:06:32;99046.50;;;21.67;61.32
47280;BME280;34064;44.942;0.008;2022-10-13T11:08:59;99045.88;;;21.80;61.03
47280;BME280;34064;44.942;0.008;2022-10-13T11:16:29;99028.78;;;22.39;60.13
47280;BME280;34064;44.942;0.008;2022-10-13T11:18:57;99023.97;;;22.50;59.53
47280;BME280;34064;44.942;0.008;2022-10-13T11:21:25;99012.91;;;22.66;59.56
47280;BME280;34064;44.942;0.008;2022-10-13T11:23:51;99019.66;;;22.77;59.14
47280;BME280;34064;44.942;0.008;2022-10-13T11:26:41;99012.47;;;22.84;57.89
47280;BME280;34064;44.942;0.008;2022-10-13T11:29:16;99009.31;;;22.81;58.48
47280;BME280;34064;44.942;0.008;2022-10-13T11:31:49;99021.94;;;22.73;58.61
47280;BME280;34064;44.942;0.008;2022-10-13T11:34:30;99020.06;;;22.74;58.66
47280;BME280;34064;44.942;0.008;2022-10-13T11:37:01;99020.00;;;22.67;58.45
47280;BME280;34064;44.942;0.008;2022-10-13T11:39:53;99019.63;;;22.70;59.07
47280;BME280;34064;44.942;0.008;2022-10-13T11:42:50;99018.03;;;22.76;58.33
47280;BME280;34064;44.942;0.008;2022-10-13T11:48:29;99032.34;;;22.55;58.54
47280;BME280;34064;44.942;0.008;2022-10-13T11:51:06;99045.63;;;22.50;58.68
47280;BME280;34064;44.942;0.008;2022-10-13T11:53:42;99055.53;;;22.42;58.51
47280;BME280;34064;44.942;0.008;2022-10-13T11:56:33;99056.22;;;22.36;59.07
47280;BME280;34064;44.942;0.008;2022-10-13T11:59:00;99049.88;;;22.29;59.02
47280;BME280;34064;44.942;0.008;2022-10-13T12:01:26;99051.28;;;22.25;58.86
47280;BME280;34064;44.942;0.008;2022-10-13T12:03:53;99056.44;;;22.20;59.20
47280;BME280;34064;44.942;0.008;2022-10-13T12:06:33;99059.22;;;22.11;58.84
47280;BME280;34064;44.942;0.008;2022-10-13T12:09:13;99045.03;;;22.09;59.48
47280;BME280;34064;44.942;0.008;2022-10-13T12:11:41;99049.91;;;22.14;59.59
47280;BME280;34064;44.942;0.008;2022-10-13T12:14:19;99042.25;;;22.18;59.61
47280;BME280;34064;44.942;0.008;2022-10-13T12:16:57;99049.34;;;22.19;60.02
47280;BME280;34064;44.942;0.008;2022-10-13T12:19:26;99032.09;;;22.20;59.62
47280;BME280;34064;44.942;0.008;2022-10-13T12:21:56;99031.72;;;22.23;59.76
47280;BME280;34064;44.942;0.008;2022-10-13T12:24:26;99029.63;;;22.25;59.50
47280;BME280;34064;44.942;0.008;2022-10-13T12:26:53;99016.09;;;22.25;59.78
47280;BME280;34064;44.942;0.008;2022-10-13T12:29:25;99012.38;;;22.26;59.05
47280;BME280;34064;44.942;0.008;2022-10-13T12:31:52;99005.69;;;22.22;59.52
47280;BME280;34064;44.942;0.008;2022-10-13T12:34:31;98999.97;;;22.17;59.54
47280;BME280;34064;44.942;0.008;2022-10-13T12:37:05;98987.41;;;22.24;59.58
47280;BME280;34064;44.942;0.008;2022-10-13T12:39:33;98969.63;;;22.36;59.52
47280;BME280;34064;44.942;0.008;2022-10-13T12:42:01;98991.41;;;22.43;59.45
47280;BME280;34064;44.942;0.008;2022-10-13T12:44:30;98989.16;;;22.47;59.32
47280;BME280;34064;44.942;0.008;2022-10-13T12:46:59;98973.25;;;22.58;59.34
47280;BME280;34064;44.942;0.008;2022-10-13T12:49:28;98978.00;;;22.71;58.76
47280;BME280;34064;44.942;0.008;2022-10-13T12:51:57;98978.00;;;22.71;58.33
47280;BME280;34064;44.942;0.008;2022-10-13T12:54:33;98987.31;;;22.69;58.40
47280;BME280;34064;44.942;0.008;2022-10-13T12:57:05;98985.19;;;22.64;58.67
47280;BME280;34064;44.942;0.008;2022-10-13T12:59:41;98991.16;;;22.59;58.85
47280;BME280;34064;44.942;0.008;2022-10-13T13:02:26;98997.81;;;22.57;59.07
47280;BME280;34064;44.942;0.008;2022-10-13T13:04:53;98997.81;;;22.57;58.88
47280;BME280;34064;44.942;0.008;2022-10-13T13:10:15;98996.53;;;22.53;59.09
47280;BME280;34064;44.942;0.008;2022-10-13T13:12:43;98981.09;;;22.53;58.79
47280;BME280;34064;44.942;0.008;2022-10-13T13:15:32;98981.31;;;22.52;58.97
47280;BME280;34064;44.942;0.008;2022-10-13T13:20:53;98977.66;;;22.44;58.78
47280;BME280;34064;44.942;0.008;2022-10-13T13:23:20;98986.00;;;22.43;59.20
47280;BME280;34064;44.942;0.008;2022-10-13T13:26:04;98993.44;;;22.41;59.47
47280;BME280;34064;44.942;0.008;2022-10-13T13:28:32;98992.63;;;22.40;59.10
47280;BME280;34064;44.942;0.008;2022-10-13T13:30:59;98987.22;;;22.40;59.40
47280;BME280;34064;44.942;0.008;2022-10-13T13:33:25;98975.53;;;22.40;59.45
47280;BME280;34064;44.942;0.008;2022-10-13T13:35:52;98978.06;;;22.41;59.30
47280;BME280;34064;44.942;0.008;2022-10-13T13:38:19;98978.06;;;22.41;59.55
47280;BME280;34064;44.942;0.008;2022-10-13T13:40:45;98979.75;;;22.42;59.30
47280;BME280;34064;44.942;0.008;2022-10-13T13:43:12;98982.47;;;22.42;59.38
47280;BME280;34064;44.942;0.008;2022-10-13T13:45:38;98978.06;;;22.41;58.89
47280;BME280;34064;44.942;0.008;2022-10-13T13:48:04;98980.09;;;22.39;59.30
47280;BME280;34064;44.942;0.008;2022-10-13T13:50:36;98980.09;;;22.39;59.01
47280;BME280;34064;44.942;0.008;2022-10-13T13:53:02;98965.56;;;22.40;59.03
47280;BME280;34064;44.942;0.008;2022-10-13T13:55:29;98962.44;;;22.43;59.02
47280;BME280;34064;44.942;0.008;2022-10-13T13:57:56;98953.97;;;22.47;58.97
47280;BME280;34064;44.942;0.008;2022-10-13T14:00:23;98952.94;;;22.48;58.79
47280;BME280;34064;44.942;0.008;2022-10-13T14:02:50;98950.22;;;22.48;59.16
47280;BME280;34064;44.942;0.008;2022-10-13T14:05:16;98955.66;;;22.48;58.82
47280;BME280;34064;44.942;0.008;2022-10-13T14:07:43;98956.09;;;22.51;58.72
47280;BME280;34064;44.942;0.008;2022-10-13T14:10:10;98951.53;;;22.52;58.80
47280;BME280;34064;44.942;0.008;2022-10-13T14:12:36;98950.69;;;22.51;58.72
47280;BME280;34064;44.942;0.008;2022-10-13T14:15:03;98953.22;;;22.53;58.54
47280;BME280;34064;44.942;0.008;2022-10-13T14:17:31;98942.41;;;22.53;58.68
47280;BME280;34064;44.942;0.008;2022-10-13T14:19:57;98943.66;;;22.57;58.30